Halifax, Vermont
Current Conditions -  °F | °C
As of 7:52 AM on Thursday 27 Nov 2014 (Local Time) from KAQW Reporting Station
Overcast Overcast  
Wind Chill: 22°   Ceiling: 1200
Heat Index: 28°   Visibility: 10mi
Dew Point: 25°   Wind: 6mph
Humidity: 88%   Direction: NA
Pressure: 29.94"   Gusts: NA
Location:  42.7575°N, 72.7347°W
Report Text: KAQW 271252Z AUTO VRB05KT 10SM OVC012 M02/M04 A2994 RMK AO2 SLP149 T10221039 FZRANO $
Loading
Personal Weather Stations






























Interactive Weather Map New forecast layout! Learn more

10-Day Weather Forecast

Advertisements
Track Severe Weather on mobile